Time;durP1;ratioP1;P1;durP2;ratioP2;P2;SDS_P1;SDS_P2;PMS_P1;PMS_P2;Temp;Humidity;BMP_temperature;BMP_pressure;BME280_temperature;BME280_humidity;BME280_pressure;Samples;Min_cycle;Max_cycle;Signal;HPM_P1;HPM_P2
2021/08/02 00:00:13;;;;;;;0.50;0.50;;;;;;;16.38;65.84;100180.56;4960338;28;20082;-73
2021/08/02 00:03:14;;;;;;;0.30;0.30;;;;;;;16.38;65.66;100175.06;4949398;28;20334;-73
2021/08/02 00:06:21;;;;;;;0.45;0.45;;;;;;;16.35;65.64;100176.50;4973887;28;20039;-72
2021/08/02 00:19:13;;;;;;;0.20;0.20;;;;;;;16.47;65.10;100189.75;4237258;26;20058;-73
2021/08/02 00:21:41;;;;;;;0.10;0.10;;;;;;;16.47;65.21;100189.75;4982070;28;20039;-73
2021/08/02 00:24:07;;;;;;;0.10;0.10;;;;;;;16.46;65.11;100190.06;4975037;28;20028;-72
2021/08/02 00:26:33;;;;;;;0.28;0.28;;;;;;;16.41;65.10;100190.97;4982122;28;20027;-74
2021/08/02 00:29:00;;;;;;;0.35;0.10;;;;;;;16.38;65.06;100186.09;4937181;28;20093;-75
2021/08/02 00:34:17;;;;;;;0.20;0.20;;;;;;;16.28;65.25;100175.28;4973798;28;20027;-71
2021/08/02 00:40:31;;;;;;;0.20;0.20;;;;;;;16.20;65.05;100185.13;4977708;28;20034;-73
2021/08/02 00:46:10;;;;;;;0.40;0.40;;;;;;;16.22;65.26;100188.38;4978281;28;20049;-74
2021/08/02 00:54:13;;;;;;;0.40;0.40;;;;;;;16.17;65.14;100192.06;4995120;28;20125;-74
2021/08/02 00:56:41;;;;;;;1.80;0.57;;;;;;;16.15;65.53;100194.34;4961356;28;20034;-73
2021/08/02 00:59:07;;;;;;;0.68;0.68;;;;;;;16.12;65.57;100200.47;4993967;28;20030;-74
2021/08/02 01:01:36;;;;;;;4.43;0.85;;;;;;;16.09;65.62;100201.09;4987905;28;20030;-74
2021/08/02 01:04:03;;;;;;;0.95;0.95;;;;;;;16.01;65.90;100193.53;4998422;28;20035;-74
2021/08/02 01:06:29;;;;;;;1.13;1.02;;;;;;;15.95;65.90;100190.06;4978195;28;20116;-73
2021/08/02 01:08:55;;;;;;;1.42;0.80;;;;;;;15.88;65.91;100190.47;4999259;28;20030;-74
2021/08/02 01:11:24;;;;;;;0.98;0.95;;;;;;;15.79;66.52;100184.03;4997352;28;20022;-74
2021/08/02 01:13:50;;;;;;;0.73;0.73;;;;;;;15.72;66.09;100191.88;4997380;28;20506;-74
2021/08/02 01:16:22;;;;;;;0.77;0.77;;;;;;;15.66;66.48;100187.59;4978963;28;20030;-77
2021/08/02 01:25:43;;;;;;;0.90;0.90;;;;;;;15.50;66.36;100196.16;5431709;23;20081;-75
2021/08/02 01:28:15;;;;;;;0.75;0.75;;;;;;;15.40;66.72;100190.81;4933964;29;20027;-77
2021/08/02 01:30:41;;;;;;;3.42;0.70;;;;;;;15.32;66.85;100183.28;4934348;29;20034;-76
2021/08/02 01:33:07;;;;;;;0.82;0.82;;;;;;;15.28;66.46;100187.75;4924884;29;20111;-74
2021/08/02 01:35:34;;;;;;;1.00;0.70;;;;;;;15.23;67.24;100182.34;4936594;29;20145;-74
2021/08/02 01:37:59;;;;;;;0.88;0.88;;;;;;;15.16;66.99;100174.47;4943463;29;20055;-75
2021/08/02 01:40:27;;;;;;;0.70;0.70;;;;;;;15.12;67.03;100174.25;4948322;29;20040;-74
2021/08/02 01:42:52;;;;;;;0.70;0.57;;;;;;;15.12;67.17;100171.50;4948909;29;20024;-73
2021/08/02 01:45:18;;;;;;;0.60;0.60;;;;;;;15.14;67.38;100177.53;4937701;29;20091;-74
2021/08/02 01:48:03;;;;;;;0.50;0.50;;;;;;;15.16;66.89;100180.78;4913907;29;20429;-73
2021/08/02 01:50:44;;;;;;;0.63;0.63;;;;;;;15.21;67.29;100181.84;4951377;29;20050;-72
2021/08/02 01:53:49;;;;;;;0.40;0.40;;;;;;;15.27;67.41;100186.13;4931389;29;20028;-72
2021/08/02 01:56:54;;;;;;;0.93;0.93;;;;;;;15.33;66.86;100190.41;4944086;29;20024;-74
2021/08/02 02:03:31;;;;;;;0.82;0.82;;;;;;;15.41;67.19;100186.97;4915101;29;20076;-73
2021/08/02 02:07:02;;;;;;;1.83;1.50;;;;;;;15.44;67.13;100196.56;5048970;23;20058;-72
2021/08/02 02:52:31;;;;;;;0.30;0.30;;;;;;;16.11;66.16;100176.75;4742579;30;20450;-74
2021/08/02 02:58:47;;;;;;;0.52;0.50;;;;;;;16.08;66.29;100163.59;4661530;30;20045;-76
2021/08/02 03:05:06;;;;;;;0.40;0.40;;;;;;;16.24;66.25;100183.38;4631497;30;20069;-73
2021/08/02 03:08:01;;;;;;;0.50;0.50;;;;;;;16.34;66.05;100187.84;4646896;30;20141;-74
2021/08/02 03:11:29;;;;;;;0.70;0.70;;;;;;;16.38;66.30;100186.94;4628451;30;20058;-74
2021/08/02 03:14:22;;;;;;;0.60;0.60;;;;;;;16.35;66.11;100186.72;4615860;31;20043;-75
2021/08/02 03:40:09;;;;;;;0.45;0.45;;;;;;;16.65;66.99;100195.44;4911858;28;20036;-77
2021/08/02 03:46:53;;;;;;;0.40;0.40;;;;;;;16.82;67.18;100211.28;4975143;28;20045;-76
2021/08/02 04:19:48;;;;;;;0.35;0.35;;;;;;;16.81;68.11;100221.53;4849109;29;20066;-74
2021/08/02 04:26:18;;;;;;;0.30;0.30;;;;;;;16.78;67.53;100202.84;4901685;29;20182;-75
2021/08/02 04:38:37;;;;;;;0.30;0.30;;;;;;;16.81;68.25;100227.06;4801639;29;20038;-72
2021/08/02 04:41:06;;;;;;;0.40;0.40;;;;;;;16.82;68.04;100228.69;4814921;29;20115;-72
2021/08/02 04:43:32;;;;;;;0.50;0.50;;;;;;;16.75;68.32;100220.03;4920603;29;20062;-72
2021/08/02 04:45:59;;;;;;;0.93;0.65;;;;;;;16.80;68.56;100230.13;4942474;29;20027;-72
2021/08/02 04:48:26;;;;;;;0.30;0.30;;;;;;;16.76;68.38;100224.41;4935091;29;20102;-72
2021/08/02 04:50:52;;;;;;;0.43;0.43;;;;;;;16.75;68.59;100222.78;4945566;28;20483;-73
2021/08/02 04:53:20;;;;;;;0.55;0.55;;;;;;;16.78;68.54;100222.16;4939948;29;20035;-74
2021/08/02 04:55:46;;;;;;;0.60;0.60;;;;;;;16.79;68.49;100229.31;4908530;28;20028;-73
2021/08/02 04:58:36;;;;;;;0.50;0.50;;;;;;;16.82;68.36;100234.22;4927033;29;20046;-74
2021/08/02 05:09:19;;;;;;;1.55;0.70;;;;;;;16.83;68.51;100241.34;4996470;28;20054;-75
2021/08/02 05:11:44;;;;;;;0.70;0.70;;;;;;;16.82;68.53;100245.28;4981510;28;20034;-74
2021/08/02 05:14:12;;;;;;;0.30;0.30;;;;;;;16.83;68.73;100244.13;5011936;28;20118;-76
2021/08/02 05:16:37;;;;;;;0.40;0.40;;;;;;;16.84;68.72;100247.72;4976917;28;20010;-75
2021/08/02 05:19:05;;;;;;;0.30;0.30;;;;;;;16.83;68.47;100241.34;4977695;28;20045;-77
2021/08/02 05:21:39;;;;;;;0.60;0.60;;;;;;;16.82;68.94;100233.38;4960116;28;20021;-74
2021/08/02 05:24:12;;;;;;;0.40;0.40;;;;;;;16.85;68.58;100232.75;5003491;28;20043;-74
2021/08/02 05:26:45;;;;;;;0.30;0.30;;;;;;;16.92;68.59;100234.00;4947870;28;20055;-74
2021/08/02 05:29:10;;;;;;;0.20;0.20;;;;;;;16.99;68.34;100243.78;4942656;29;20052;-73
2021/08/02 05:31:36;;;;;;;0.45;0.45;;;;;;;17.05;68.29;100248.06;4950335;29;20024;-73
2021/08/02 05:34:03;;;;;;;0.30;0.30;;;;;;;17.07;68.10;100240.28;4934446;29;20035;-77
2021/08/02 05:37:04;;;;;;;0.25;0.25;;;;;;;17.15;68.33;100241.47;4948551;29;20023;-76
2021/08/02 05:39:34;;;;;;;0.30;0.30;;;;;;;17.13;68.12;100241.78;4925750;29;20020;-78
2021/08/02 05:42:00;;;;;;;0.32;0.30;;;;;;;17.17;67.90;100251.09;4895587;29;20138;-74
2021/08/02 05:51:49;;;;;;;;;;;;;;;;;;;;;
2021/08/02 05:55:04;;;;;;;0.50;0.50;;;;;;;17.18;67.97;100241.66;4865549;29;20477;-73
2021/08/02 06:02:11;;;;;;;;;;;;;;;;;;;;;
2021/08/02 06:08:19;;;;;;;0.10;0.10;;;;;;;17.28;67.88;100260.72;4783741;29;20050;-73
2021/08/02 06:10:44;;;;;;;0.57;0.30;;;;;;;17.32;67.61;100257.31;4767886;29;20045;-73
2021/08/02 06:13:10;;;;;;;0.20;0.20;;;;;;;17.37;67.93;100255.25;4844775;29;20037;-72
2021/08/02 06:15:35;;;;;;;0.20;0.20;;;;;;;17.41;67.53;100255.44;4922442;29;20039;-72
2021/08/02 06:18:02;;;;;;;0.20;0.20;;;;;;;17.41;67.62;100247.16;4953752;28;20115;-73
2021/08/02 06:20:31;;;;;;;0.20;0.20;;;;;;;17.42;67.72;100252.38;4936441;29;20043;-72
2021/08/02 06:23:40;;;;;;;0.28;0.25;;;;;;;17.54;67.70;100259.28;4922595;29;20054;-74
2021/08/02 06:43:37;;;;;;;;;;;;;;;;;;;;;
2021/08/02 06:47:09;;;;;;;;;;;;;;;;;;;;;
2021/08/02 06:53:36;;;;;;;0.60;0.60;;;;;;;18.52;65.99;100271.19;4903844;29;20066;-75
2021/08/02 06:59:59;;;;;;;;;;;;;;;18.63;65.01;100272.50;4827500;29;20079;-74
2021/08/02 07:02:57;;;;;;;;;;;;;;;;;;;;;
2021/08/02 07:22:52;;;;;;;;;;;;;;;;;;;;;
2021/08/02 07:25:19;;;;;;;0.30;0.30;;;;;;;18.64;65.07;100262.25;4844051;29;20053;-74
2021/08/02 07:28:14;;;;;;;0.50;0.40;;;;;;;18.79;64.34;100270.09;4835324;29;20176;-75
2021/08/02 07:30:44;;;;;;;0.30;0.30;;;;;;;18.81;65.02;100270.56;4830520;29;20045;-74
2021/08/02 07:33:28;;;;;;;7.22;0.45;;;;;;;18.96;64.59;100266.50;4835330;29;20526;-74
2021/08/02 07:36:01;;;;;;;0.40;0.40;;;;;;;19.04;64.60;100266.84;4886120;28;20035;-76
2021/08/02 07:38:28;;;;;;;0.88;0.32;;;;;;;19.13;64.01;100275.97;4952521;28;20096;-76
2021/08/02 07:41:30;;;;;;;0.32;0.32;;;;;;;19.22;64.17;100278.75;4945370;28;20062;-74
2021/08/02 07:43:57;;;;;;;0.20;0.20;;;;;;;19.27;63.88;100268.25;4950490;28;20106;-77
2021/08/02 07:47:14;;;;;;;0.65;0.65;;;;;;;19.42;63.14;100277.22;4931570;29;20023;-76
2021/08/02 07:55:32;;;;;;;2.08;0.73;;;;;;;19.62;62.88;100279.28;5005243;28;20014;-72
2021/08/02 07:58:07;;;;;;;0.63;0.55;;;;;;;19.70;63.06;100281.22;5004320;28;20054;-73
2021/08/02 08:00:33;;;;;;;0.47;0.40;;;;;;;19.70;62.40;100289.53;4999746;28;20037;-74
2021/08/02 08:03:44;;;;;;;0.22;0.20;;;;;;;19.87;62.49;100285.94;4988998;28;20018;-72
2021/08/02 08:06:39;;;;;;;0.40;0.40;;;;;;;19.90;62.65;100283.63;5056713;23;20517;-73
2021/08/02 08:12:38;;;;;;;0.20;0.20;;;;;;;20.12;61.81;100274.22;4980842;28;20070;-75
2021/08/02 08:15:40;;;;;;;0.40;0.40;;;;;;;20.27;61.31;100282.00;4977718;28;20023;-75
2021/08/02 08:18:06;;;;;;;0.50;0.50;;;;;;;20.16;61.27;100275.19;4884498;29;20034;-75
2021/08/02 08:24:03;;;;;;;0.30;0.30;;;;;;;20.24;61.26;100274.34;4880397;29;20069;-74
2021/08/02 08:26:32;;;;;;;0.30;0.30;;;;;;;20.37;61.31;100278.84;4869400;29;20029;-76
2021/08/02 08:29:01;;;;;;;0.20;0.20;;;;;;;20.46;60.84;100267.66;4958195;28;20031;-75
2021/08/02 08:31:27;;;;;;;0.40;0.30;;;;;;;20.79;61.19;100274.50;4972517;28;20027;-74
2021/08/02 08:34:17;;;;;;;0.20;0.20;;;;;;;20.98;60.64;100266.47;4937828;28;20038;-75
2021/08/02 08:36:45;;;;;;;0.30;0.30;;;;;;;21.22;59.61;100276.91;4966395;28;20137;-76
2021/08/02 08:39:13;;;;;;;0.30;0.22;;;;;;;21.35;59.06;100285.25;4971843;28;20047;-74
2021/08/02 08:41:41;;;;;;;0.55;0.30;;;;;;;21.45;59.26;100274.53;4944818;28;20030;-75
2021/08/02 08:44:08;;;;;;;0.20;0.20;;;;;;;21.58;58.88;100280.16;4960293;28;20113;-75
2021/08/02 08:46:34;;;;;;;0.20;0.20;;;;;;;21.71;58.65;100279.03;4955563;28;20030;-74
2021/08/02 08:48:59;;;;;;;0.20;0.20;;;;;;;21.77;58.42;100280.44;4968640;28;20087;-74
2021/08/02 08:51:27;;;;;;;0.20;0.20;;;;;;;21.82;57.90;100270.25;4973348;28;20381;-73
2021/08/02 08:53:53;;;;;;;0.40;0.20;;;;;;;21.93;57.35;100276.97;4967242;28;20019;-75
2021/08/02 08:56:23;;;;;;;0.20;0.20;;;;;;;22.06;57.98;100280.56;4976685;28;20041;-74
2021/08/02 08:58:49;;;;;;;0.08;0.08;;;;;;;22.13;57.50;100276.03;4972171;28;20106;-74
2021/08/02 09:01:14;;;;;;;1.33;0.20;;;;;;;22.39;57.24;100279.69;4944260;28;20777;-76
2021/08/02 09:03:53;;;;;;;0.43;0.30;;;;;;;22.54;56.79;100278.13;4952073;28;20051;-74
2021/08/02 09:06:25;;;;;;;0.40;0.30;;;;;;;22.32;55.84;100274.69;4958605;28;20051;-74
2021/08/02 09:08:52;;;;;;;0.25;0.20;;;;;;;22.12;56.46;100280.00;4966260;28;20047;-76
2021/08/02 09:11:25;;;;;;;0.38;0.30;;;;;;;22.02;56.23;100280.47;4974599;28;20025;-75
2021/08/02 09:13:54;;;;;;;0.38;0.38;;;;;;;21.80;56.22;100284.50;4971325;28;20030;-73
2021/08/02 09:16:25;;;;;;;0.22;0.20;;;;;;;21.61;56.40;100283.06;4978203;28;20058;-75
2021/08/02 09:19:04;;;;;;;0.28;0.20;;;;;;;21.64;57.04;100283.53;4973362;28;20033;-73
2021/08/02 09:22:00;;;;;;;0.20;0.20;;;;;;;21.82;57.13;100287.75;4968070;28;20390;-75
2021/08/02 09:28:26;;;;;;;0.10;0.10;;;;;;;22.67;56.28;100290.88;4980333;28;20066;-72
2021/08/02 09:31:03;;;;;;;0.20;0.10;;;;;;;23.01;55.90;100292.31;4967009;28;20058;-76
2021/08/02 09:33:46;;;;;;;1.00;0.40;;;;;;;23.37;55.53;100283.34;4971748;28;20481;-75
2021/08/02 09:36:12;;;;;;;0.25;0.25;;;;;;;23.71;54.83;100293.03;4971776;28;20031;-76
2021/08/02 09:38:39;;;;;;;0.20;0.20;;;;;;;24.00;54.06;100285.44;4951596;28;20030;-74
2021/08/02 09:41:04;;;;;;;0.30;0.30;;;;;;;24.09;53.07;100280.44;4975472;28;20034;-77
2021/08/02 09:43:33;;;;;;;0.40;0.40;;;;;;;24.09;52.17;100277.66;4951936;28;20019;-75
2021/08/02 09:46:00;;;;;;;0.30;0.30;;;;;;;24.11;52.02;100274.50;4949642;28;20022;-75
2021/08/02 09:48:43;;;;;;;0.30;0.30;;;;;;;24.08;51.34;100281.66;4976398;28;20031;-73
2021/08/02 09:51:11;;;;;;;0.30;0.30;;;;;;;24.08;51.38;100264.88;4951899;28;20035;-74
2021/08/02 09:53:57;;;;;;;0.50;0.40;;;;;;;24.33;51.63;100270.25;4942584;28;20023;-72
2021/08/02 09:56:24;;;;;;;0.30;0.30;;;;;;;24.61;50.77;100269.31;4950847;28;20046;-75
2021/08/02 09:58:50;;;;;;;0.30;0.30;;;;;;;24.68;51.23;100275.06;4966284;28;20031;-74
2021/08/02 10:01:17;;;;;;;2.20;0.40;;;;;;;25.04;51.25;100281.41;4971296;28;20026;-74
2021/08/02 10:03:43;;;;;;;0.30;0.20;;;;;;;25.34;50.52;100283.63;4970038;28;20030;-74
2021/08/02 10:09:50;;;;;;;0.30;0.20;;;;;;;25.85;50.36;100274.97;4966640;28;20057;-74
2021/08/02 10:12:15;;;;;;;0.20;0.20;;;;;;;26.38;49.88;100265.00;4974177;28;20047;-74
2021/08/02 10:14:43;;;;;;;0.40;0.40;;;;;;;26.51;46.97;100283.22;4975195;28;20023;-75
2021/08/02 10:17:12;;;;;;;0.75;0.50;;;;;;;26.27;45.87;100276.88;4954421;28;20038;-73
2021/08/02 10:20:14;;;;;;;0.28;0.28;;;;;;;26.58;47.58;100272.13;4944015;28;20572;-74
2021/08/02 10:22:49;;;;;;;0.70;0.70;;;;;;;26.93;45.80;100287.84;4965327;28;20050;-75
2021/08/02 10:25:37;;;;;;;1.40;0.50;;;;;;;27.13;45.25;100276.44;4957051;28;20168;-78
2021/08/02 10:32:24;;;;;;;0.17;0.17;;;;;;;27.71;44.95;100279.91;4974743;28;20038;-74
2021/08/02 10:35:04;;;;;;;;;;;;;;;;;;;;;
2021/08/02 10:37:41;;;;;;;11.80;0.50;;;;;;;27.66;41.63;100272.63;4975515;28;20122;-73
2021/08/02 10:40:24;;;;;;;0.47;0.40;;;;;;;27.24;42.42;100280.19;4951699;28;20528;-74
2021/08/02 10:42:51;;;;;;;0.77;0.50;;;;;;;26.45;42.39;100277.13;4965087;28;20503;-74
2021/08/02 10:45:47;;;;;;;0.50;0.40;;;;;;;25.95;43.90;100273.53;4977208;28;20085;-75
2021/08/02 10:48:28;;;;;;;0.73;0.35;;;;;;;25.70;44.90;100261.88;4946245;28;20023;-76
2021/08/02 10:51:11;;;;;;;0.90;0.50;;;;;;;25.73;45.11;100270.38;4947539;28;20070;-75
2021/08/02 10:53:37;;;;;;;0.52;0.40;;;;;;;25.76;44.80;100271.63;4948580;29;20035;-73
2021/08/02 10:56:02;;;;;;;0.55;0.30;;;;;;;25.77;44.49;100270.41;4934606;28;20384;-73
2021/08/02 10:58:28;;;;;;;0.40;0.40;;;;;;;25.75;44.64;100276.38;4960506;28;20031;-72
2021/08/02 11:01:16;;;;;;;0.47;0.40;;;;;;;25.83;44.80;100270.91;4970762;28;20018;-73
2021/08/02 11:03:42;;;;;;;0.30;0.30;;;;;;;26.22;44.41;100276.38;4941347;28;20050;-73
2021/08/02 11:06:08;;;;;;;0.85;0.40;;;;;;;26.21;43.50;100284.00;4974206;28;20122;-73
2021/08/02 11:08:42;;;;;;;0.85;0.82;;;;;;;25.90;43.58;100276.63;4967783;28;20050;-74
2021/08/02 11:11:09;;;;;;;0.47;0.47;;;;;;;25.71;44.12;100277.50;4976375;28;20031;-74
2021/08/02 11:13:35;;;;;;;0.40;0.40;;;;;;;25.67;44.09;100276.63;4961144;28;20033;-73
2021/08/02 11:16:00;;;;;;;0.85;0.50;;;;;;;25.51;44.06;100276.75;4956417;28;20031;-73
2021/08/02 11:18:28;;;;;;;0.60;0.60;;;;;;;25.29;43.55;100281.94;4937881;28;20018;-72
2021/08/02 11:20:56;;;;;;;1.25;0.60;;;;;;;25.17;44.26;100274.47;4971077;28;20042;-73
2021/08/02 11:23:36;;;;;;;0.40;0.40;;;;;;;25.75;45.37;100279.19;4972267;28;20042;-71
2021/08/02 11:26:10;;;;;;;0.88;0.57;;;;;;;25.85;43.73;100272.16;4958028;28;20038;-74
2021/08/02 11:28:41;;;;;;;0.50;0.50;;;;;;;25.72;44.04;100271.53;4948398;28;20404;-76
2021/08/02 11:31:31;;;;;;;0.60;0.40;;;;;;;25.66;43.86;100277.84;4965791;28;20530;-75
2021/08/02 11:34:11;;;;;;;;;;;;;;;;;;;;;
2021/08/02 11:36:37;;;;;;;1.50;0.47;;;;;;;25.32;43.98;100274.78;4974546;28;20113;-75
2021/08/02 11:39:17;;;;;;;0.88;0.60;;;;;;;25.32;44.52;100274.78;4970479;28;20055;-75
2021/08/02 11:41:46;;;;;;;2.15;0.75;;;;;;;25.09;44.56;100276.31;4976426;28;20079;-76
2021/08/02 11:44:13;;;;;;;0.75;0.43;;;;;;;24.84;45.28;100273.03;4973756;28;20062;-74
2021/08/02 11:46:38;;;;;;;0.73;0.50;;;;;;;24.74;45.10;100268.81;4952101;28;20039;-76
2021/08/02 11:49:04;;;;;;;1.27;0.52;;;;;;;24.58;45.53;100277.22;4962802;28;20091;-74
2021/08/02 11:51:30;;;;;;;0.40;0.40;;;;;;;24.48;46.07;100272.19;4973686;28;20022;-74
2021/08/02 11:53:57;;;;;;;0.35;0.35;;;;;;;24.45;45.30;100267.34;4964602;28;20030;-76
2021/08/02 11:56:31;;;;;;;1.05;0.60;;;;;;;24.49;45.70;100251.47;4973641;28;20027;-74
2021/08/02 11:58:57;;;;;;;0.63;0.50;;;;;;;24.30;45.34;100259.78;4930189;28;20039;-76
2021/08/02 12:02:01;;;;;;;0.95;0.70;;;;;;;23.98;45.72;100257.06;4938520;28;20034;-73
2021/08/02 12:04:28;;;;;;;0.57;0.57;;;;;;;23.78;46.64;100259.72;4953731;28;20031;-76
2021/08/02 12:06:54;;;;;;;1.02;0.57;;;;;;;23.65;46.50;100255.41;4961886;28;20037;-73
2021/08/02 12:09:34;;;;;;;0.65;0.50;;;;;;;23.58;46.76;100258.00;4976675;28;20416;-74
2021/08/02 12:12:19;;;;;;;1.83;0.75;;;;;;;23.39;46.96;100251.13;4959243;28;20089;-74
2021/08/02 12:14:50;;;;;;;0.63;0.32;;;;;;;23.33;47.67;100246.97;4955152;28;20026;-77
2021/08/02 12:17:16;;;;;;;0.70;0.70;;;;;;;23.24;47.38;100261.09;5005138;23;20085;-74
2021/08/02 12:19:52;;;;;;;0.60;0.52;;;;;;;23.07;48.37;100265.00;4991033;28;20034;-77
2021/08/02 12:22:22;;;;;;;2.72;0.57;;;;;;;22.93;48.86;100256.22;4995768;28;20022;-75
2021/08/02 12:24:56;;;;;;;0.57;0.50;;;;;;;23.06;48.83;100251.41;4987925;28;20031;-78
2021/08/02 12:27:23;;;;;;;0.37;0.37;;;;;;;23.07;49.20;100255.78;4991257;28;20031;-75
2021/08/02 12:29:56;;;;;;;0.60;0.60;;;;;;;23.16;49.40;100251.72;4991011;28;20045;-75
2021/08/02 12:32:32;;;;;;;0.40;0.40;;;;;;;23.30;49.41;100242.91;4991438;28;20512;-75
2021/08/02 12:34:59;;;;;;;4.38;0.50;;;;;;;23.50;48.75;100241.06;4995183;28;20038;-73
2021/08/02 12:37:42;;;;;;;0.50;0.50;;;;;;;23.76;48.53;100248.13;4976736;28;20038;-72
2021/08/02 12:40:18;;;;;;;0.40;0.40;;;;;;;23.90;47.54;100258.03;4996993;28;20501;-72
2021/08/02 12:45:39;;;;;;;0.82;0.60;;;;;;;23.84;47.98;100252.69;5247526;23;20122;-73
2021/08/02 12:48:07;;;;;;;0.50;0.50;;;;;;;24.02;48.15;100260.72;4950966;28;20074;-75
2021/08/02 12:50:36;;;;;;;1.48;0.50;;;;;;;24.16;47.24;100255.50;4957675;28;20042;-74
2021/08/02 12:53:02;;;;;;;0.38;0.38;;;;;;;24.30;47.09;100251.41;4936954;28;20042;-75
2021/08/02 12:55:28;;;;;;;0.50;0.30;;;;;;;24.33;47.32;100265.47;4963702;28;20030;-75
2021/08/02 12:58:03;;;;;;;0.88;0.50;;;;;;;24.16;46.88;100261.06;4972728;28;20082;-76
2021/08/02 13:00:28;;;;;;;;;;;;;;;24.13;47.03;100267.38;4971786;28;20050;-73
2021/08/02 13:06:39;;;;;;;3.60;0.80;;;;;;;23.77;48.13;100266.50;4890169;29;20040;-72
2021/08/02 13:09:07;;;;;;;0.75;0.75;;;;;;;23.33;48.75;100264.56;4878338;29;20399;-73
2021/08/02 13:11:39;;;;;;;1.75;0.63;;;;;;;22.97;49.67;100268.28;4872663;29;20408;-75
2021/08/02 13:17:46;;;;;;;0.47;0.47;;;;;;;22.41;50.62;100253.06;4913210;29;20625;-73
2021/08/02 13:20:12;;;;;;;1.75;0.65;;;;;;;22.45;50.76;100254.00;4952388;28;20066;-74
2021/08/02 13:22:48;;;;;;;1.80;0.55;;;;;;;22.55;50.14;100265.84;4970425;28;20031;-76
2021/08/02 13:28:02;;;;;;;0.25;0.22;;;;;;;22.70;51.05;100258.72;4966151;28;20054;-75
2021/08/02 13:30:31;;;;;;;1.38;0.50;;;;;;;22.63;51.34;100259.31;4945457;28;20030;-77
2021/08/02 21:35:33;;;;;;;0.10;0.10;;;;;;;16.43;63.26;100194.28;5360613;23;20270;-76
2021/08/02 21:38:40;;;;;;;0.00;0.00;;;;;;;16.46;63.12;100193.66;4978676;28;20046;-76
2021/08/02 21:41:49;;;;;;;0.10;0.10;;;;;;;16.39;63.11;100182.22;4976578;28;20074;-74
2021/08/02 21:48:02;;;;;;;;;;;;;;;;;;;;;
2021/08/02 21:50:33;;;;;;;0.10;0.10;;;;;;;16.33;63.12;100169.66;4921566;29;20131;-74
2021/08/02 21:53:19;;;;;;;0.65;0.10;;;;;;;16.39;63.22;100179.47;4917859;29;20099;-75
2021/08/02 21:55:58;;;;;;;0.10;0.10;;;;;;;16.42;63.38;100198.16;4977559;28;20499;-74
2021/08/02 21:59:27;;;;;;;0.10;0.10;;;;;;;16.47;63.03;100192.53;4979646;28;20035;-77
2021/08/02 22:02:10;;;;;;;0.20;0.20;;;;;;;16.44;63.47;100184.88;4920522;29;20047;-78
2021/08/02 22:04:36;;;;;;;0.15;0.15;;;;;;;16.41;63.56;100179.94;4906824;29;20035;-76
2021/08/02 22:07:36;;;;;;;0.28;0.20;;;;;;;16.63;63.48;100204.03;4960632;28;20050;-74
2021/08/02 22:10:28;;;;;;;0.28;0.28;;;;;;;16.63;63.89;100200.44;4979769;28;20055;-75
2021/08/02 22:13:10;;;;;;;0.20;0.20;;;;;;;16.61;63.57;100199.94;4973186;28;20031;-74
2021/08/02 22:22:29;;;;;;;0.20;0.20;;;;;;;16.49;63.77;100198.53;4919738;29;20511;-74
2021/08/02 22:28:21;;;;;;;0.10;0.10;;;;;;;16.31;63.96;100177.44;4984911;28;20090;-75
2021/08/02 22:40:39;;;;;;;0.20;0.13;;;;;;;16.29;64.34;100188.78;4954182;28;20261;-73
2021/08/02 22:46:27;;;;;;;0.25;0.20;;;;;;;16.21;64.12;100187.56;4992248;28;20396;-74
2021/08/02 22:56:48;;;;;;;;;;;;;;;;;;;;;
2021/08/02 23:10:06;;;;;;;0.10;0.10;;;;;;;15.98;64.45;100150.03;4936127;29;20032;-76
2021/08/02 23:15:32;;;;;;;0.30;0.30;;;;;;;15.84;64.75;100156.38;4933483;29;20030;-75
2021/08/02 23:18:04;;;;;;;0.43;0.43;;;;;;;15.78;64.73;100152.06;4920971;29;20670;-78
2021/08/02 23:21:22;;;;;;;0.30;0.30;;;;;;;15.69;64.86;100131.84;4920681;29;20051;-77
2021/08/02 23:28:07;;;;;;;;;;;;;;;;;;;;;
2021/08/02 23:31:37;;;;;;;0.10;0.10;;;;;;;15.76;64.91;100148.78;4846335;29;20105;-77
2021/08/02 23:38:21;;;;;;;0.15;0.15;;;;;;;15.44;64.42;100117.47;4340907;29;15113039;-76
2021/08/02 23:41:47;;;;;;;0.10;0.10;;;;;;;15.52;64.88;100147.06;4754763;29;20053;-77
2021/08/02 23:45:10;;;;;;;;;;;;;;;;;;;;;
2021/08/02 23:47:54;;;;;;;0.10;0.10;;;;;;;15.01;65.46;100120.50;4779027;30;20058;-78
